createdAt,value
2023-05-02T00:00:57.080Z,25.54
2023-05-02T00:01:57.149Z,25.54
2023-05-02T00:02:57.244Z,25.54
2023-05-02T00:03:57.146Z,25.55
2023-05-02T00:04:57.079Z,25.55
2023-05-02T00:05:57.072Z,25.54
2023-05-02T00:06:57.161Z,25.55
2023-05-02T00:07:57.036Z,25.55
2023-05-02T00:08:57.071Z,25.54
2023-05-02T00:09:57.074Z,25.54
2023-05-02T00:10:57.063Z,25.55
2023-05-02T00:11:57.074Z,25.53
2023-05-02T00:12:57.056Z,25.54
2023-05-02T00:13:57.040Z,25.54
2023-05-02T00:14:57.049Z,25.53
2023-05-02T00:15:57.062Z,25.53
2023-05-02T00:16:57.137Z,25.54
2023-05-02T00:17:57.179Z,25.53
2023-05-02T00:18:57.084Z,25.54
2023-05-02T00:19:57.334Z,25.53
2023-05-02T00:20:57.069Z,25.53
2023-05-02T00:21:57.073Z,25.53
2023-05-02T00:22:57.039Z,25.53
2023-05-02T00:23:57.049Z,25.53
2023-05-02T00:24:57.080Z,25.53
2023-05-02T00:25:57.029Z,25.53
2023-05-02T00:26:57.059Z,25.53
2023-05-02T00:27:57.055Z,25.53
2023-05-02T00:28:57.050Z,25.53
2023-05-02T00:29:57.188Z,25.53
2023-05-02T00:30:57.043Z,25.53
2023-05-02T00:31:57.030Z,25.52
2023-05-02T00:32:57.101Z,25.53
2023-05-02T00:33:57.027Z,25.52
2023-05-02T00:34:57.013Z,25.53
2023-05-02T00:35:56.998Z,25.53
2023-05-02T00:36:57.041Z,25.52
2023-05-02T00:37:57.008Z,25.53
2023-05-02T00:38:57.024Z,25.52
2023-05-02T00:39:57.206Z,25.52
2023-05-02T00:40:57.041Z,25.52
2023-05-02T00:41:56.988Z,25.53
2023-05-02T00:42:56.996Z,25.53
2023-05-02T00:43:56.980Z,25.52
2023-05-02T00:44:57.005Z,25.52
2023-05-02T00:45:56.986Z,25.52
2023-05-02T00:46:57.219Z,25.52
2023-05-02T00:47:57.068Z,25.52
2023-05-02T00:48:57.017Z,25.52
2023-05-02T00:49:57.122Z,25.52
2023-05-02T00:50:56.989Z,25.52
2023-05-02T00:51:56.990Z,25.52
2023-05-02T00:52:56.999Z,25.52
2023-05-02T00:53:56.976Z,25.51
2023-05-02T00:54:56.977Z,25.51
2023-05-02T00:55:56.991Z,25.51
2023-05-02T00:56:56.975Z,25.52
2023-05-02T00:57:56.981Z,25.51
2023-05-02T00:58:56.986Z,25.52
2023-05-02T00:59:57.081Z,25.52
2023-05-02T01:00:56.964Z,25.52
2023-05-02T01:01:57.088Z,25.52
2023-05-02T01:02:57.056Z,25.52
2023-05-02T01:03:57.072Z,25.52
2023-05-02T01:04:56.940Z,25.51
2023-05-02T01:05:56.950Z,25.51
2023-05-02T01:06:56.928Z,25.51
2023-05-02T01:07:56.910Z,25.52
2023-05-02T01:08:56.950Z,25.51
2023-05-02T01:09:57.130Z,25.52
2023-05-02T01:10:56.925Z,25.51
2023-05-02T01:11:56.931Z,25.51
2023-05-02T01:12:56.931Z,25.52
2023-05-02T01:13:56.919Z,25.51
2023-05-02T01:14:56.912Z,25.51
2023-05-02T01:15:56.992Z,25.51
2023-05-02T01:16:56.966Z,25.51
2023-05-02T01:17:56.975Z,25.51
2023-05-02T01:18:56.919Z,25.51
2023-05-02T01:19:56.956Z,25.50
2023-05-02T01:20:56.912Z,25.51
2023-05-02T01:21:56.895Z,25.51
2023-05-02T01:22:56.901Z,25.51
2023-05-02T01:23:56.902Z,25.52
2023-05-02T01:24:56.892Z,25.51
2023-05-02T01:25:56.879Z,25.51
2023-05-02T01:26:56.884Z,25.51
2023-05-02T01:27:56.911Z,25.51
2023-05-02T01:28:56.908Z,25.50
2023-05-02T01:29:56.955Z,25.52
2023-05-02T01:30:56.910Z,25.51
2023-05-02T01:31:56.972Z,25.51
2023-05-02T01:32:56.967Z,25.51
2023-05-02T01:33:56.921Z,25.50
2023-05-02T01:34:56.919Z,25.50
2023-05-02T01:35:56.903Z,25.50
2023-05-02T01:36:56.884Z,25.50
2023-05-02T01:37:56.886Z,25.51
2023-05-02T01:38:56.910Z,25.50
2023-05-02T01:39:56.980Z,25.51
2023-05-02T01:40:56.910Z,25.51
2023-05-02T01:41:56.866Z,25.51
2023-05-02T01:42:56.890Z,25.51
2023-05-02T01:43:56.883Z,25.51
2023-05-02T01:44:56.936Z,25.50
2023-05-02T01:45:56.915Z,25.50
2023-05-02T01:46:56.934Z,25.51
2023-05-02T01:47:56.947Z,25.50
2023-05-02T01:48:56.918Z,25.50
2023-05-02T01:49:56.963Z,25.50
2023-05-02T01:50:56.905Z,25.50
2023-05-02T01:51:56.905Z,25.50
2023-05-02T01:52:56.898Z,25.50
2023-05-02T01:53:56.904Z,25.50
2023-05-02T01:54:56.900Z,25.50
2023-05-02T01:55:56.892Z,25.49
2023-05-02T01:56:56.909Z,25.49
2023-05-02T01:57:56.889Z,25.49
2023-05-02T01:58:56.896Z,25.50
2023-05-02T01:59:57.010Z,25.50
2023-05-02T02:00:56.978Z,25.49
2023-05-02T02:01:56.885Z,25.49
2023-05-02T02:02:56.955Z,25.50
2023-05-02T02:03:56.946Z,25.49
2023-05-02T02:04:56.897Z,25.49
2023-05-02T02:05:56.876Z,25.49
2023-05-02T02:06:56.896Z,25.49
2023-05-02T02:07:56.903Z,25.49
2023-05-02T02:08:56.907Z,25.49
2023-05-02T02:09:56.886Z,25.49
2023-05-02T02:10:56.881Z,25.50
2023-05-02T02:11:56.883Z,25.50
2023-05-02T02:12:56.901Z,25.50
2023-05-02T02:13:56.907Z,25.50
2023-05-02T02:14:56.911Z,25.49
2023-05-02T02:15:56.926Z,25.49
2023-05-02T02:16:56.939Z,25.49
2023-05-02T02:17:56.948Z,25.49
2023-05-02T02:18:56.877Z,25.49
2023-05-02T02:19:57.068Z,25.48
2023-05-02T02:20:56.898Z,25.49
2023-05-02T02:21:56.894Z,25.49
2023-05-02T02:22:56.913Z,25.49
2023-05-02T02:23:56.852Z,25.48
2023-05-02T02:24:56.856Z,25.48
2023-05-02T02:25:57.021Z,25.47
2023-05-02T02:26:56.900Z,25.49
2023-05-02T02:27:56.857Z,25.48
2023-05-02T02:28:56.855Z,25.48
2023-05-02T02:29:56.879Z,25.48
2023-05-02T02:30:56.871Z,25.48
2023-05-02T02:31:56.872Z,25.48
2023-05-02T02:32:56.881Z,25.48
2023-05-02T02:33:56.873Z,25.47
2023-05-02T02:34:56.861Z,25.47
2023-05-02T02:35:56.843Z,25.47
2023-05-02T02:36:56.861Z,25.48
2023-05-02T02:37:56.864Z,25.48
2023-05-02T02:38:56.880Z,25.48
2023-05-02T02:39:56.950Z,25.47
2023-05-02T02:40:56.891Z,25.48
2023-05-02T02:41:56.870Z,25.47
2023-05-02T02:42:56.860Z,25.48
2023-05-02T02:43:56.894Z,25.48
2023-05-02T02:44:56.913Z,25.48
2023-05-02T02:45:56.920Z,25.48
2023-05-02T02:46:56.895Z,25.47
2023-05-02T02:47:56.912Z,25.48
2023-05-02T02:48:56.910Z,25.47
2023-05-02T02:49:56.928Z,25.47
2023-05-02T02:50:56.870Z,25.48
2023-05-02T02:51:56.915Z,25.48
2023-05-02T02:52:56.916Z,25.47
2023-05-02T02:53:56.922Z,25.47
2023-05-02T02:54:56.902Z,25.47
2023-05-02T02:55:56.884Z,25.47
2023-05-02T02:56:56.882Z,25.47
2023-05-02T02:57:56.902Z,25.47
2023-05-02T02:58:56.901Z,25.47
2023-05-02T02:59:56.975Z,25.47
2023-05-02T03:00:56.925Z,25.47
2023-05-02T03:01:56.948Z,25.47
2023-05-02T03:02:56.981Z,25.47
2023-05-02T03:03:56.914Z,25.47
2023-05-02T03:04:56.909Z,25.47
2023-05-02T03:05:56.912Z,25.47
2023-05-02T03:06:56.922Z,25.47
2023-05-02T03:07:56.896Z,25.47
2023-05-02T03:08:56.928Z,25.47
2023-05-02T03:09:56.938Z,25.46
2023-05-02T03:10:56.929Z,25.47
2023-05-02T03:11:56.916Z,25.47
2023-05-02T03:12:56.931Z,25.46
2023-05-02T03:13:56.949Z,25.46
2023-05-02T03:14:56.956Z,25.46
2023-05-02T03:15:56.965Z,25.46
2023-05-02T03:16:57.037Z,25.46
2023-05-02T03:17:56.987Z,25.46
2023-05-02T03:18:56.953Z,25.46
2023-05-02T03:19:57.065Z,25.46
2023-05-02T03:20:56.927Z,25.46
2023-05-02T03:21:56.959Z,25.47
2023-05-02T03:22:56.923Z,25.46
2023-05-02T03:23:56.901Z,25.46
2023-05-02T03:24:56.919Z,25.46
2023-05-02T03:25:56.912Z,25.46
2023-05-02T03:26:56.946Z,25.46
2023-05-02T03:27:56.941Z,25.46
2023-05-02T03:28:56.909Z,25.45
2023-05-02T03:29:57.040Z,25.45
2023-05-02T03:30:56.923Z,25.46
2023-05-02T03:31:56.954Z,25.45
2023-05-02T03:32:57.102Z,25.46
2023-05-02T03:33:56.951Z,25.46
2023-05-02T03:34:56.974Z,25.45
2023-05-02T03:35:56.958Z,25.46
2023-05-02T03:36:56.980Z,25.46
2023-05-02T03:37:56.981Z,25.45
2023-05-02T03:38:56.985Z,25.46
2023-05-02T03:39:56.961Z,25.45
2023-05-02T03:40:56.979Z,25.46
2023-05-02T03:41:56.946Z,25.45
2023-05-02T03:42:56.966Z,25.45
2023-05-02T03:43:56.987Z,25.45
2023-05-02T03:44:56.964Z,25.45
2023-05-02T03:45:56.983Z,25.45
2023-05-02T03:46:57.017Z,25.45
2023-05-02T03:47:57.069Z,25.45
2023-05-02T03:48:56.992Z,25.46
2023-05-02T03:49:57.029Z,25.46
2023-05-02T03:50:56.967Z,25.46
2023-05-02T03:51:56.979Z,25.47
2023-05-02T03:52:56.974Z,25.47
2023-05-02T03:53:56.991Z,25.47
2023-05-02T03:54:56.993Z,25.47
2023-05-02T03:55:57.022Z,25.47
2023-05-02T03:56:56.997Z,25.48
2023-05-02T03:57:56.983Z,25.48
2023-05-02T03:58:56.978Z,25.49
2023-05-02T03:59:57.126Z,25.50
2023-05-02T04:00:57.004Z,25.50
2023-05-02T04:01:57.001Z,25.51
2023-05-02T04:02:57.076Z,25.52
2023-05-02T04:03:57.054Z,25.53
2023-05-02T04:04:57.001Z,25.55
2023-05-02T04:05:56.983Z,25.55
2023-05-02T04:06:57.009Z,25.56
2023-05-02T04:07:56.989Z,25.58
2023-05-02T04:08:56.995Z,25.59
2023-05-02T04:09:57.071Z,25.61
2023-05-02T04:10:57.002Z,25.62
2023-05-02T04:11:57.010Z,25.63
2023-05-02T04:12:57.035Z,25.64
2023-05-02T04:13:57.085Z,25.65
2023-05-02T04:14:57.113Z,25.67
2023-05-02T04:15:57.158Z,25.68
2023-05-02T04:16:57.306Z,25.70
2023-05-02T04:17:57.252Z,25.71
2023-05-02T04:18:57.285Z,25.73
2023-05-02T04:19:57.411Z,25.74
2023-05-02T04:20:57.430Z,25.76
2023-05-02T04:21:57.517Z,25.77
2023-05-02T04:22:57.543Z,25.78
2023-05-02T04:23:57.642Z,25.80
2023-05-02T04:24:57.693Z,25.81
2023-05-02T04:25:57.765Z,25.83
2023-05-02T04:26:57.789Z,25.84
2023-05-02T04:27:57.855Z,25.85
2023-05-02T04:28:57.934Z,25.86
2023-05-02T04:29:58.267Z,25.87
2023-05-02T04:30:58.080Z,25.89
2023-05-02T04:31:58.063Z,25.90
2023-05-02T04:32:58.198Z,25.91
2023-05-02T04:33:58.194Z,25.92
2023-05-02T04:34:58.225Z,25.94
2023-05-02T04:35:58.283Z,25.93
2023-05-02T04:36:58.355Z,25.94
2023-05-02T04:37:58.377Z,25.95
2023-05-02T04:38:58.467Z,25.95
2023-05-02T04:39:58.646Z,25.95
2023-05-02T04:40:58.533Z,25.96
2023-05-02T04:41:58.585Z,25.96
2023-05-02T04:42:58.632Z,25.97
2023-05-02T04:43:58.668Z,25.97
2023-05-02T04:44:58.745Z,25.99
2023-05-02T04:45:58.912Z,25.98
2023-05-02T04:46:58.796Z,25.99
2023-05-02T04:47:58.892Z,25.98
2023-05-02T04:48:58.891Z,25.99
2023-05-02T04:49:59.212Z,25.99
2023-05-02T04:50:59.000Z,26.00
2023-05-02T04:51:59.062Z,25.99
2023-05-02T04:52:59.071Z,26.00
2023-05-02T04:53:59.139Z,26.00
2023-05-02T04:54:59.149Z,25.99
2023-05-02T04:55:59.189Z,26.00
2023-05-02T04:56:59.261Z,25.99
2023-05-02T04:57:59.287Z,26.00
2023-05-02T04:58:59.359Z,26.01
2023-05-02T04:59:59.736Z,26.01
2023-05-02T05:01:08.150Z,26.01
2023-05-02T05:01:59.496Z,26.00
2023-05-02T05:03:01.710Z,26.00
2023-05-02T05:03:59.776Z,26.01
2023-05-02T05:04:59.776Z,26.01
2023-05-02T05:05:59.887Z,26.02
2023-05-02T05:06:59.909Z,26.02
2023-05-02T05:07:59.984Z,26.02
2023-05-02T05:08:59.936Z,26.02
2023-05-02T05:10:00.343Z,26.02
2023-05-02T05:11:00.032Z,26.02
2023-05-02T05:12:00.074Z,26.02
2023-05-02T05:13:00.122Z,26.02
2023-05-02T05:14:00.175Z,26.02
2023-05-02T05:15:00.246Z,26.02
2023-05-02T05:16:00.370Z,26.02
2023-05-02T05:17:00.332Z,26.00
2023-05-02T05:18:00.377Z,26.01
2023-05-02T05:19:00.432Z,26.01
2023-05-02T05:20:00.808Z,26.01
2023-05-02T05:21:00.506Z,26.01
2023-05-02T05:22:00.550Z,26.01
2023-05-02T05:23:00.592Z,26.00
2023-05-02T05:24:00.633Z,26.00
2023-05-02T05:25:00.705Z,26.01
2023-05-02T05:26:00.730Z,26.01
2023-05-02T05:27:00.808Z,26.01
2023-05-02T05:28:00.845Z,26.01
2023-05-02T05:29:00.861Z,26.00
2023-05-02T05:30:01.195Z,25.99
2023-05-02T05:31:00.982Z,26.01
2023-05-02T05:32:01.108Z,26.00
2023-05-02T05:33:01.199Z,26.00
2023-05-02T05:34:01.592Z,26.00
2023-05-02T05:35:01.204Z,25.99
2023-05-02T05:36:01.273Z,25.98
2023-05-02T05:37:01.371Z,25.95
2023-05-02T05:38:01.401Z,25.91
2023-05-02T05:39:01.544Z,25.85
2023-05-02T05:40:01.603Z,25.84
2023-05-02T05:41:01.440Z,25.83
2023-05-02T05:42:01.456Z,25.83
2023-05-02T05:43:01.436Z,25.84
2023-05-02T05:44:01.414Z,25.84
2023-05-02T05:45:01.431Z,25.87
2023-05-02T05:46:08.503Z,25.88
2023-05-02T05:47:01.496Z,25.89
2023-05-02T05:48:01.466Z,25.91
2023-05-02T05:49:01.460Z,25.92
2023-05-02T05:50:01.896Z,25.92
2023-05-02T05:51:01.494Z,25.94
2023-05-02T05:52:01.416Z,25.94
2023-05-02T05:53:01.430Z,25.94
2023-05-02T05:54:01.428Z,25.95
2023-05-02T05:55:01.405Z,25.97
2023-05-02T05:56:01.390Z,25.99
2023-05-02T05:57:01.402Z,26.00
2023-05-02T05:58:01.376Z,26.02
2023-05-02T05:59:01.356Z,26.04
2023-05-02T06:00:01.767Z,26.06
2023-05-02T06:01:01.385Z,26.07
2023-05-02T06:02:01.424Z,26.09
2023-05-02T06:03:01.581Z,26.11
2023-05-02T06:04:01.416Z,26.12
2023-05-02T06:05:01.797Z,26.14
2023-05-02T06:06:01.360Z,26.16
2023-05-02T06:07:01.323Z,26.17
2023-05-02T06:08:01.328Z,26.18
2023-05-02T06:09:01.315Z,26.19
2023-05-02T06:10:01.579Z,26.20
2023-05-02T06:11:01.380Z,26.21
2023-05-02T06:12:01.299Z,26.23
2023-05-02T06:13:01.319Z,26.24
2023-05-02T06:14:01.344Z,26.26
2023-05-02T06:15:01.562Z,26.26
2023-05-02T06:16:01.459Z,26.27
2023-05-02T06:17:01.478Z,26.27
2023-05-02T06:18:01.538Z,26.28
2023-05-02T06:19:01.536Z,26.29
2023-05-02T06:20:01.920Z,26.30
2023-05-02T06:21:01.594Z,26.32
2023-05-02T06:22:01.657Z,26.33
2023-05-02T06:23:01.676Z,26.34
2023-05-02T06:24:01.669Z,26.36
2023-05-02T06:25:01.784Z,26.37
2023-05-02T06:26:01.736Z,26.38
2023-05-02T06:27:01.819Z,26.40
2023-05-02T06:28:01.881Z,26.41
2023-05-02T06:29:01.917Z,26.42
2023-05-02T06:30:02.586Z,26.42
2023-05-02T06:31:02.139Z,26.42
2023-05-02T06:32:02.134Z,26.42
2023-05-02T06:33:02.129Z,26.43
2023-05-02T06:34:02.109Z,26.43
2023-05-02T06:35:02.217Z,26.43
2023-05-02T06:36:02.537Z,26.43
2023-05-02T06:37:02.246Z,26.42
2023-05-02T06:38:02.390Z,26.40
2023-05-02T06:39:02.346Z,26.34
2023-05-02T06:40:02.745Z,26.30
2023-05-02T06:41:02.439Z,26.28
2023-05-02T06:42:02.515Z,26.26
2023-05-02T06:43:02.562Z,26.24
2023-05-02T06:44:02.592Z,26.22
2023-05-02T06:45:02.627Z,26.24
2023-05-02T06:46:02.722Z,26.25
2023-05-02T06:47:02.744Z,26.26
2023-05-02T06:48:02.830Z,26.26
2023-05-02T06:49:02.806Z,26.27
2023-05-02T06:50:03.045Z,26.28
2023-05-02T06:51:02.900Z,26.29
2023-05-02T06:52:02.961Z,26.28
2023-05-02T06:53:02.986Z,26.30
2023-05-02T06:54:03.111Z,26.31
2023-05-02T06:55:03.578Z,26.31
2023-05-02T06:56:03.170Z,26.33
2023-05-02T06:57:03.230Z,26.34
2023-05-02T06:58:03.298Z,26.34
2023-05-02T06:59:03.328Z,26.35
2023-05-02T07:00:03.556Z,26.36
2023-05-02T07:01:03.465Z,26.37
2023-05-02T07:02:05.314Z,26.38
2023-05-02T07:03:03.451Z,26.39
2023-05-02T07:04:03.495Z,26.40
2023-05-02T07:05:03.592Z,26.41
2023-05-02T07:06:03.658Z,26.42
2023-05-02T07:07:03.636Z,26.43
2023-05-02T07:08:03.652Z,26.43
2023-05-02T07:09:03.701Z,26.44
2023-05-02T07:10:04.063Z,26.45
2023-05-02T07:11:03.833Z,26.46
2023-05-02T07:12:06.607Z,26.47
2023-05-02T07:13:03.847Z,26.49
2023-05-02T07:14:03.885Z,26.51
2023-05-02T07:15:04.094Z,26.53
2023-05-02T07:16:03.859Z,26.55
2023-05-02T07:17:04.544Z,26.58
2023-05-02T07:18:03.875Z,26.62
2023-05-02T07:19:03.813Z,26.66
2023-05-02T07:20:04.174Z,26.67
2023-05-02T07:21:03.763Z,26.69
2023-05-02T07:22:03.753Z,26.71
2023-05-02T07:23:03.779Z,26.73
2023-05-02T07:24:03.757Z,26.76
2023-05-02T07:25:04.098Z,26.79
2023-05-02T07:26:06.152Z,26.80
2023-05-02T07:27:03.876Z,26.81
2023-05-02T07:28:04.001Z,26.81
2023-05-02T07:29:03.918Z,26.82
2023-05-02T07:30:04.102Z,26.83
2023-05-02T07:31:04.847Z,26.84
2023-05-02T07:32:03.917Z,26.83
2023-05-02T07:33:03.948Z,26.83
2023-05-02T07:34:03.922Z,26.82
2023-05-02T07:35:04.104Z,26.81
2023-05-02T07:36:03.961Z,26.80
2023-05-02T07:37:03.999Z,26.78
2023-05-02T07:38:03.936Z,26.77
2023-05-02T07:39:03.988Z,26.78
2023-05-02T07:40:04.225Z,26.79
2023-05-02T07:41:04.093Z,26.77
2023-05-02T07:42:04.038Z,26.71
2023-05-02T07:43:04.088Z,26.66
2023-05-02T07:44:04.091Z,26.61
2023-05-02T07:45:04.130Z,26.57
2023-05-02T07:46:04.225Z,26.42
2023-05-02T07:47:04.258Z,26.28
2023-05-02T07:48:04.502Z,26.16
2023-05-02T07:49:04.364Z,26.05
2023-05-02T07:50:04.514Z,25.98
2023-05-02T07:51:04.390Z,25.91
2023-05-02T07:52:04.401Z,25.87
2023-05-02T07:53:04.395Z,25.84
2023-05-02T07:54:04.362Z,25.81
2023-05-02T07:55:04.419Z,25.78
2023-05-02T07:56:04.628Z,25.77
2023-05-02T07:57:04.427Z,25.75
2023-05-02T07:58:04.449Z,25.76
2023-05-02T07:59:05.668Z,25.78
2023-05-02T08:00:04.643Z,25.79
2023-05-02T08:01:04.494Z,25.80
2023-05-02T08:02:04.459Z,25.82
2023-05-02T08:03:04.541Z,25.84
2023-05-02T08:04:04.669Z,25.84
2023-05-02T08:05:04.542Z,25.84
2023-05-02T08:06:04.513Z,25.85
2023-05-02T08:07:04.463Z,25.85
2023-05-02T08:08:04.467Z,25.85
2023-05-02T08:09:04.482Z,25.86
2023-05-02T08:10:04.570Z,25.87
2023-05-02T08:11:04.455Z,25.89
2023-05-02T08:12:04.449Z,25.88
2023-05-02T08:13:04.480Z,25.87
2023-05-02T08:14:04.456Z,25.87
2023-05-02T08:15:04.438Z,25.86
2023-05-02T08:16:04.559Z,25.88
2023-05-02T08:17:04.503Z,25.86
2023-05-02T08:18:04.488Z,25.86
2023-05-02T08:19:04.489Z,25.83
2023-05-02T08:20:04.442Z,25.83
2023-05-02T08:21:04.467Z,25.83
2023-05-02T08:22:04.471Z,25.83
2023-05-02T08:23:04.490Z,25.81
2023-05-02T08:24:04.511Z,25.81
2023-05-02T08:25:04.524Z,25.80
2023-05-02T08:26:04.488Z,25.78
2023-05-02T08:27:04.497Z,25.75
2023-05-02T08:28:04.510Z,25.74
2023-05-02T08:29:04.517Z,25.75
2023-05-02T08:30:04.636Z,25.77
2023-05-02T08:31:04.542Z,25.78
2023-05-02T08:32:04.719Z,25.79
2023-05-02T08:33:04.599Z,25.83
2023-05-02T08:34:04.590Z,25.88
2023-05-02T08:35:04.607Z,25.93
2023-05-02T08:36:04.639Z,25.97
2023-05-02T08:37:04.576Z,26.00
2023-05-02T08:38:04.622Z,26.02
2023-05-02T08:39:04.661Z,26.06
2023-05-02T08:40:04.780Z,26.09
2023-05-02T08:41:05.123Z,26.11
2023-05-02T08:42:04.801Z,26.14
2023-05-02T08:43:04.888Z,26.16
2023-05-02T08:44:04.922Z,26.20
2023-05-02T08:45:04.953Z,26.21
2023-05-02T08:46:05.075Z,26.23
2023-05-02T08:47:05.111Z,26.25
2023-05-02T08:48:05.197Z,26.26
2023-05-02T08:49:05.214Z,26.25
2023-05-02T08:50:05.269Z,26.27
2023-05-02T08:51:05.322Z,26.25
2023-05-02T08:52:05.389Z,26.23
2023-05-02T08:53:05.514Z,26.23
2023-05-02T08:54:05.498Z,26.23
2023-05-02T08:55:05.561Z,26.18
2023-05-02T08:56:05.629Z,26.10
2023-05-02T08:57:05.671Z,25.96
2023-05-02T08:58:05.708Z,25.85
2023-05-02T08:59:05.679Z,25.73
2023-05-02T09:00:05.714Z,25.63
2023-05-02T09:01:06.160Z,25.58
2023-05-02T09:02:05.758Z,25.51
2023-05-02T09:03:05.845Z,25.45
2023-05-02T09:04:05.878Z,25.40
2023-05-02T09:05:05.869Z,25.39
2023-05-02T09:06:05.909Z,25.38
2023-05-02T09:07:05.903Z,25.34
2023-05-02T09:08:05.925Z,25.30
2023-05-02T09:09:06.016Z,25.30
2023-05-02T09:10:06.055Z,25.32
2023-05-02T09:11:06.082Z,25.35
2023-05-02T09:12:06.196Z,25.41
2023-05-02T09:13:06.155Z,25.46
2023-05-02T09:14:06.181Z,25.51
2023-05-02T09:15:06.216Z,25.55
2023-05-02T09:16:06.271Z,25.58
2023-05-02T09:17:06.339Z,25.62
2023-05-02T09:18:06.266Z,25.66
2023-05-02T09:19:06.231Z,25.70
2023-05-02T09:20:06.450Z,25.72
2023-05-02T09:21:06.647Z,25.75
2023-05-02T09:22:06.318Z,25.79
2023-05-02T09:23:06.306Z,25.80
2023-05-02T09:24:06.259Z,25.80
2023-05-02T09:25:06.260Z,25.76
2023-05-02T09:26:06.274Z,25.73
2023-05-02T09:27:06.278Z,25.72
2023-05-02T09:28:06.292Z,25.75
2023-05-02T09:29:06.269Z,25.78
2023-05-02T09:30:06.337Z,25.79
2023-05-02T09:31:06.335Z,25.82
2023-05-02T09:32:06.321Z,25.85
2023-05-02T09:33:06.308Z,25.85
2023-05-02T09:34:06.247Z,25.84
2023-05-02T09:35:06.296Z,25.85
2023-05-02T09:36:06.452Z,25.88
2023-05-02T09:37:06.275Z,25.90
2023-05-02T09:38:06.369Z,25.92
2023-05-02T09:39:06.389Z,25.93
2023-05-02T09:40:06.334Z,25.96
2023-05-02T09:41:06.673Z,25.99
2023-05-02T09:42:06.368Z,26.00
2023-05-02T09:43:06.396Z,26.02
2023-05-02T09:44:06.461Z,26.00
2023-05-02T09:45:06.440Z,25.98
2023-05-02T09:46:06.511Z,25.97
2023-05-02T09:47:06.486Z,25.94
2023-05-02T09:48:06.487Z,25.90
2023-05-02T09:49:06.427Z,25.84
2023-05-02T09:50:06.439Z,25.75
2023-05-02T09:51:06.425Z,25.68
2023-05-02T09:52:06.453Z,25.65
2023-05-02T09:53:06.464Z,25.60
2023-05-02T09:54:06.468Z,25.53
2023-05-02T09:55:06.503Z,25.47
2023-05-02T09:56:06.545Z,25.43
2023-05-02T09:57:06.563Z,25.40
2023-05-02T09:58:06.620Z,25.37
2023-05-02T09:59:06.630Z,25.34
2023-05-02T10:00:06.687Z,25.33
2023-05-02T10:01:06.791Z,25.33
2023-05-02T10:02:06.791Z,25.32
2023-05-02T10:03:06.880Z,25.34
2023-05-02T10:04:06.895Z,25.33
2023-05-02T10:05:06.900Z,25.34
2023-05-02T10:06:07.211Z,25.33
2023-05-02T10:07:06.958Z,25.33
2023-05-02T10:08:07.580Z,25.34
2023-05-02T10:09:07.044Z,25.34
2023-05-02T10:10:07.084Z,25.32
2023-05-02T10:11:07.157Z,25.30
2023-05-02T10:12:07.158Z,25.28
2023-05-02T10:13:07.251Z,25.26
2023-05-02T10:14:07.251Z,25.24
2023-05-02T10:15:08.128Z,25.23
2023-05-02T10:16:07.474Z,25.24
2023-05-02T10:17:07.405Z,25.23
2023-05-02T10:18:07.498Z,25.23
2023-05-02T10:19:07.526Z,25.24
2023-05-02T10:20:07.725Z,25.24
2023-05-02T10:21:07.705Z,25.24
2023-05-02T10:22:07.626Z,25.24
2023-05-02T10:23:07.690Z,25.26
2023-05-02T10:24:07.723Z,25.26
2023-05-02T10:25:07.767Z,25.26
2023-05-02T10:26:08.682Z,25.26
2023-05-02T10:27:07.847Z,25.26
2023-05-02T10:28:07.875Z,25.23
2023-05-02T10:29:07.924Z,25.22
2023-05-02T10:30:07.956Z,25.22
2023-05-02T10:31:08.037Z,25.21
2023-05-02T10:32:08.108Z,25.19
2023-05-02T10:33:08.209Z,25.18
2023-05-02T10:34:08.193Z,25.18
2023-05-02T10:35:08.247Z,25.18
2023-05-02T10:36:08.728Z,25.19
2023-05-02T10:37:08.401Z,25.20
2023-05-02T10:38:08.420Z,25.16
2023-05-02T10:39:08.427Z,25.13
2023-05-02T10:40:08.490Z,25.11
2023-05-02T10:41:08.702Z,25.13
2023-05-02T10:42:08.594Z,25.15
2023-05-02T10:43:08.650Z,25.18
2023-05-02T10:44:08.765Z,25.22
2023-05-02T10:45:09.676Z,25.27
2023-05-02T10:46:08.911Z,25.32
2023-05-02T10:47:08.803Z,25.34
2023-05-02T10:48:09.019Z,25.34
2023-05-02T10:49:08.970Z,25.32
2023-05-02T10:50:08.927Z,25.25
2023-05-02T10:51:08.979Z,25.23
2023-05-02T10:52:09.229Z,25.21
2023-05-02T10:53:09.708Z,25.24
2023-05-02T10:54:09.104Z,25.24
2023-05-02T10:55:09.148Z,25.26
2023-05-02T10:56:09.256Z,25.26
2023-05-02T10:57:09.203Z,25.27
2023-05-02T10:58:09.249Z,25.25
2023-05-02T10:59:09.284Z,25.20
2023-05-02T11:00:09.342Z,25.17
2023-05-02T11:01:09.821Z,25.15
2023-05-02T11:02:09.476Z,25.16
2023-05-02T11:03:09.537Z,25.19
2023-05-02T11:04:09.594Z,25.22
2023-05-02T11:05:09.632Z,25.28
2023-05-02T11:06:09.876Z,25.32
2023-05-02T11:07:09.634Z,25.39
2023-05-02T11:08:09.621Z,25.42
2023-05-02T11:09:09.641Z,25.47
2023-05-02T11:10:09.720Z,25.51
2023-05-02T11:11:09.675Z,25.53
2023-05-02T11:12:09.674Z,25.51
2023-05-02T11:13:09.694Z,25.51
2023-05-02T11:14:09.717Z,25.49
2023-05-02T11:15:09.736Z,25.48
2023-05-02T11:16:10.247Z,25.48
2023-05-02T11:17:09.771Z,25.48
2023-05-02T11:18:09.926Z,25.51
2023-05-02T11:19:09.743Z,25.53
2023-05-02T11:20:09.780Z,25.51
2023-05-02T11:21:09.752Z,25.48
2023-05-02T11:22:09.813Z,25.51
2023-05-02T11:23:09.890Z,25.53
2023-05-02T11:24:09.829Z,25.55
2023-05-02T11:25:09.860Z,25.57
2023-05-02T11:26:09.865Z,25.60
2023-05-02T11:27:09.903Z,25.60
2023-05-02T11:28:09.865Z,25.61
2023-05-02T11:29:09.894Z,25.67
2023-05-02T11:30:10.145Z,25.70
2023-05-02T11:31:09.906Z,25.75
2023-05-02T11:32:10.272Z,25.80
2023-05-02T11:33:09.947Z,25.84
2023-05-02T11:34:10.002Z,25.85
2023-05-02T11:35:10.083Z,25.87
2023-05-02T11:36:10.113Z,25.89
2023-05-02T11:37:10.226Z,25.89
2023-05-02T11:38:10.213Z,25.88
2023-05-02T11:39:10.252Z,25.88
2023-05-02T11:40:10.336Z,25.87
2023-05-02T11:41:10.332Z,25.85
2023-05-02T11:42:10.384Z,25.85
2023-05-02T11:43:10.451Z,25.84
2023-05-02T11:44:10.465Z,25.83
2023-05-02T11:45:10.479Z,25.83
2023-05-02T11:46:10.526Z,25.83
2023-05-02T11:47:10.545Z,25.83
2023-05-02T11:48:10.585Z,25.82
2023-05-02T11:49:12.017Z,25.81
2023-05-02T11:50:10.575Z,25.80
2023-05-02T11:51:10.605Z,25.79
2023-05-02T11:52:10.614Z,25.78
2023-05-02T11:53:10.620Z,25.78
2023-05-02T11:54:10.589Z,25.78
2023-05-02T11:55:11.747Z,25.78
2023-05-02T11:56:10.612Z,25.79
2023-05-02T11:57:10.626Z,25.79
2023-05-02T11:58:10.600Z,25.80
2023-05-02T11:59:10.671Z,25.81
2023-05-02T12:00:10.628Z,25.81
2023-05-02T12:01:11.148Z,25.83
2023-05-02T12:02:10.751Z,25.83
2023-05-02T12:03:10.738Z,25.82
2023-05-02T12:04:10.736Z,25.82
2023-05-02T12:05:10.765Z,25.83
2023-05-02T12:06:10.872Z,25.83
2023-05-02T12:07:12.210Z,25.84
2023-05-02T12:08:10.820Z,25.85
2023-05-02T12:09:10.903Z,25.86
2023-05-02T12:10:11.067Z,25.87
2023-05-02T12:11:10.971Z,25.88
2023-05-02T12:12:10.998Z,25.89
2023-05-02T12:13:11.891Z,25.89
2023-05-02T12:14:11.065Z,25.89
2023-05-02T12:15:11.115Z,25.88
2023-05-02T12:16:11.215Z,25.87
2023-05-02T12:17:11.231Z,25.87
2023-05-02T12:18:11.310Z,25.87
2023-05-02T12:19:11.329Z,25.85
2023-05-02T12:20:11.464Z,25.85
2023-05-02T12:21:11.351Z,25.85
2023-05-02T12:22:11.388Z,25.84
2023-05-02T12:23:11.395Z,25.84
2023-05-02T12:24:11.466Z,25.85
2023-05-02T12:25:11.417Z,25.86
2023-05-02T12:26:11.426Z,25.86
2023-05-02T12:27:11.505Z,25.87
2023-05-02T12:28:11.537Z,25.87
2023-05-02T12:29:11.549Z,25.87
2023-05-02T12:30:11.620Z,25.85
2023-05-02T12:31:11.734Z,25.84
2023-05-02T12:32:11.704Z,25.84
2023-05-02T12:33:11.727Z,25.86
2023-05-02T12:34:11.704Z,25.87
2023-05-02T12:35:11.766Z,25.88
2023-05-02T12:36:11.835Z,25.90
2023-05-02T12:37:11.914Z,25.91
2023-05-02T12:38:11.892Z,25.92
2023-05-02T12:39:11.958Z,25.94
2023-05-02T12:40:12.041Z,25.97
2023-05-02T12:41:12.101Z,26.00
2023-05-02T12:42:12.176Z,26.03
2023-05-02T12:43:12.219Z,26.05
2023-05-02T12:44:12.282Z,26.08
2023-05-02T12:45:12.321Z,26.10
2023-05-02T12:46:12.367Z,26.12
2023-05-02T12:47:12.471Z,26.15
2023-05-02T12:48:12.554Z,26.18
2023-05-02T12:49:12.713Z,26.20
2023-05-02T12:50:12.575Z,26.22
2023-05-02T12:51:12.656Z,26.23
2023-05-02T12:52:12.708Z,26.24
2023-05-02T12:53:12.786Z,26.25